Terminal Aerodrome Forecast
Issued by NWS

Home | Current Version | Previous Version | Text Only | Print | Product List | Glossary On
Versions: 1 2 3 4 5 6 7 8 9 10 11 12 13 14 15 16 17 18 19 20 21 22 23 24 25 26 27 28 29 30 31 32
586
FTAK31 PANC 272324
TAFACD
TAF
PACD 272324Z 2800/2824 16011KT P6SM FEW015 OVC120
     FM280300 14014KT P6SM -RA SCT015 BKN035
     FM280600 14016KT P6SM VCSH SCT015 BKN025
     FM281400 13009KT P6SM SCT025 BKN035
     FM282000 13014KT P6SM BKN025=

USA.gov is the U.S. government's official web portal to all federal, state and local government web resources and services.